Flight Track Log - Related Links

Times and Time Zones

All times are in EDT time to prevent confusion due to time zone crossing. See the N480QS flight status page for this flight to view local times or setup timezone preferences in your user account.

Time Position Orientation Groundspeed Altitude Reporting Facility
EDT Latitude Longitude Course Direction KTS MPH feet Rate Location/Type
08:58AM 39.8667 -75.2667 242° Southwest 182 209 800  Level Philadelphia TRACON
08:58AM 39.8167 -75.3167 226° Southwest 253 291 2,400 2,556 Climbing Philadelphia TRACON
08:59AM 39.7667 -75.3667 218° Southwest 272 313 5,400 2,700 Climbing Philadelphia TRACON
09:00AM 39.7000 -75.3000 142° Southeast 319 367 7,800 2,132 Climbing Philadelphia TRACON
09:02AM 39.7219 -75.1433 80° East 330 380 10,800 1,753 Climbing New York Center
09:03AM 39.7458 -75.0044 77° East 356 410 12,300 1,623 Climbing New York Center
09:04AM 39.7669 -74.8786 78° East 381 438 14,100 1,678 Climbing New York Center
09:05AM 39.7906 -74.7342 78° East 392 451 15,600 1,641 Climbing New York Center
09:06AM 39.8058 -74.5892 82° East 398 458 17,300 1,574 Climbing New York Center
09:08AM 39.8183 -74.2803 87° East 425 489 20,400 1,427 Climbing Boston Center
09:09AM 39.8472 -74.1278 76° East 432 497 21,700 1,220 Climbing Boston Center
09:10AM 39.9286 -73.9711 56° Northeast 436 502 22,900 1,073 Climbing Boston Center
09:11AM 40.0008 -73.8375 55° Northeast 446 513 23,900 1,033 Climbing Boston Center
09:12AM 40.0575 -73.6822 64° Northeast 471 542 25,000 1,131 Climbing Boston Center
09:13AM 40.1164 -73.5150 65° Northeast 484 557 26,200 1,033 Climbing Boston Center
09:14AM 40.1739 -73.3533 65° Northeast 493 567 27,100 878 Climbing Boston Center
09:15AM 40.2308 -73.1914 65° Northeast 508 585 28,000 1,024 Climbing Boston Center
09:16AM 40.2922 -73.0192 65° Northeast 520 598 29,200 1,328 Climbing Boston Center
09:17AM 40.3522 -72.8436 66° East 526 605 30,700 1,279 Climbing Boston Center
09:18AM 40.4136 -72.6692 65° Northeast 527 606 31,800 1,220 Climbing Boston Center
09:19AM 40.4869 -72.4533 66° East 541 623 33,200 1,366 Climbing Boston Center
09:20AM 40.5472 -72.2739 66° East 540 621 34,600 1,525 Climbing Boston Center
09:21AM 40.6061 -72.1003 66° East 526 605 36,300 1,623 Climbing Boston Center
09:22AM 40.6644 -71.9286 66° East 521 600 37,900 984 Climbing Boston Center
09:23AM 40.7208 -71.7600 66° East 509 586 38,300 439 Climbing Boston Center
09:24AM 40.7836 -71.5706 66° East 511 588 38,800 488 Climbing Boston Center
09:25AM 40.8339 -71.4158 67° East 517 595 39,300 639 Climbing Boston Center
09:26AM 40.8953 -71.2425 65° Northeast 518 596 40,100 836 Climbing Boston Center
09:27AM 40.9636 -71.0439 65° Northeast 501 577 41,000 439 Climbing Boston Center
09:28AM 41.0144 -70.8972 65° Northeast 485 558 41,000  Level Boston Center
09:29AM 41.0694 -70.7356 66° East 485 558 41,000  Level Boston Center
09:30AM 41.1247 -70.5733 66° East 485 558 41,000  Level Boston Center
09:31AM 41.1800 -70.4100 66° East 485 558 41,000  Level Boston Center
09:32AM 41.2464 -70.2133 66° East 486 559 41,000  Level Boston Center
09:33AM 41.2956 -70.0664 66° East 487 560 41,000  Level Boston Center
09:34AM 41.3500 -69.9006 66° East 488 562 41,000  Level Boston Center
09:36AM 41.4053 -69.7331 66° East 491 565 41,000  Level Boston Center
09:37AM 41.4608 -69.5647 66° East 494 568 41,000  Level Boston Center
09:38AM 41.5264 -69.3625 67° East 494 568 41,000  Level Boston Center
09:39AM 41.5828 -69.1914 66° East 500 575 41,000  Level Boston Center
09:40AM 41.6308 -69.0406 67° East 502 578 41,000  Level Boston Center
09:41AM 41.6964 -68.8342 67° East 504 580 41,000  Level Boston Center
09:42AM 41.7511 -68.6619 67° East 505 581 41,000  Level Boston Center
09:43AM 41.8061 -68.4881 67° East 506 582 41,000  Level Boston Center
09:44AM 41.8600 -68.3147 67° East 507 583 41,000  Level Boston Center
09:44AM 41.9000 -68.1667 70° East 510 587 41,000  Level Moncton Center
09:45AM 41.9333 -67.9833 76° East 510 587 41,000  Level Moncton Center
09:46AM 42.0000 -67.8167 62° Northeast 510 587 41,000  Level Moncton Center
09:47AM 42.0500 -67.6333 70° East 510 587 41,000  Level Moncton Center
09:48AM 42.1000 -67.4500 70° East 510 587 41,000  Level Moncton Center
09:49AM 42.1667 -67.3000 59° Northeast 500 575 41,000  Level Moncton Center
09:50AM 42.2167 -67.1000 71° East 500 575 41,000  Level Moncton Center
09:51AM 42.2500 -66.9500 73° East 500 575 41,000  Level Moncton Center
09:52AM 42.3000 -66.7667 70° East 500 575 41,000  Level Moncton Center
09:53AM 42.3667 -66.5833 64° Northeast 500 575 41,000  Level Moncton Center
09:54AM 42.4167 -66.4167 68° East 500 575 41,000  Level Moncton Center
09:55AM 42.4667 -66.2333 70° East 500 575 41,000  Level Moncton Center
09:56AM 42.5000 -66.0667 75° East 500 575 41,000  Level Moncton Center
09:57AM 42.5500 -65.9000 68° East 500 575 41,000  Level Moncton Center
09:58AM 42.6167 -65.7167 64° Northeast 500 575 41,000  Level Moncton Center
09:59AM 42.6667 -65.5333 70° East 500 575 41,000  Level Moncton Center
10:00AM 42.7167 -65.3500 70° East 500 575 41,000  Level Moncton Center
10:01AM 42.7667 -65.2000 66° East 510 587 41,000  Level Moncton Center
10:02AM 42.8167 -65.0167 70° East 500 575 41,000  Level Moncton Center
10:03AM 42.8500 -64.8333 76° East 500 575 41,000  Level Moncton Center
10:04AM 42.9000 -64.6500 70° East 510 587 41,000  Level Moncton Center
10:05AM 42.9500 -64.4667 70° East 500 575 41,000  Level Moncton Center
10:06AM 43.0000 -64.2833 69° East 500 575 41,000  Level Moncton Center
10:07AM 43.0500 -64.1167 68° East 500 575 41,000  Level Moncton Center
10:08AM 43.1000 -63.9167 71° East 500 575 41,000  Level Moncton Center
10:09AM 43.1500 -63.7500 68° East 500 575 41,000  Level Moncton Center
10:10AM 43.2000 -63.5667 69° East 500 575 41,000  Level Moncton Center
10:11AM 43.2333 -63.3833 76° East 500 575 41,000  Level Moncton Center
10:12AM 43.2833 -63.2000 69° East 500 575 41,000  Level Moncton Center
10:13AM 43.3333 -63.0500 65° Northeast 500 575 41,000  Level Moncton Center
10:14AM 43.3667 -62.8333 78° East 510 587 41,000  Level Moncton Center
10:15AM 43.4167 -62.6667 68° East 500 575 41,000  Level Moncton Center
10:16AM 43.4667 -62.4833 69° East 500 575 41,000  Level Moncton Center
10:17AM 43.5167 -62.3000 69° East 500 575 41,000  Level Moncton Center
10:18AM 43.5500 -62.1167 76° East 500 575 41,000  Level Moncton Center
10:19AM 43.5833 -61.9333 76° East 500 575 41,000  Level Moncton Center
10:20AM 43.6333 -61.7667 67° East 500 575 41,000  Level Moncton Center
10:21AM 43.6833 -61.5833 69° East 500 575 41,000  Level Moncton Center
10:22AM 43.7333 -61.3833 71° East 500 575 41,000  Level Moncton Center
10:23AM 43.7667 -61.2000 76° East 500 575 41,000  Level Moncton Center
10:24AM 43.8167 -61.0167 69° East 510 587 41,000  Level Moncton Center
10:25AM 43.8667 -60.8333 69° East 510 587 41,000  Level Moncton Center
10:26AM 43.8833 -60.6333 83° East 510 587 41,000  Level Moncton Center
10:27AM 43.9333 -60.4667 67° East 510 587 41,000  Level Moncton Center
10:28AM 43.9833 -60.2667 71° East 510 587 41,000  Level Moncton Center
10:29AM 44.0167 -60.1000 74° East 500 575 41,000  Level Moncton Center
10:30AM 44.0667 -59.8833 72° East 500 575 41,000  Level Moncton Center
10:31AM 44.1000 -59.7167 74° East 500 575 41,000  Level Moncton Center
10:32AM 44.1500 -59.5333 69° East 500 575 41,000  Level Moncton Center
10:33AM 44.1833 -59.3333 77° East 510 587 41,000  Level Moncton Center
10:34AM 44.2333 -59.1500 69° East 500 575 41,000  Level Moncton Center
10:35AM 44.2667 -58.9500 77° East 500 575 41,000  Level Moncton Center
10:36AM 44.3000 -58.7833 74° East 510 587 41,000  Level Moncton Center
10:37AM 44.3333 -58.6000 76° East 500 575 41,000  Level Moncton Center
10:38AM 44.3833 -58.4000 71° East 500 575 41,000  Level Moncton Center
10:39AM 44.4167 -58.2167 76° East 500 575 41,000  Level Moncton Center
10:40AM 44.4500 -58.0167 77° East 500 575 41,000  Level Moncton Center
10:41AM 44.5000 -57.8333 69° East 490 564 41,000  Level Moncton Center
10:42AM 44.5333 -57.6667 74° East 490 564 41,000  Level Moncton Center
10:43AM 44.5667 -57.4667 77° East 490 564 41,000  Level Moncton Center
10:44AM 44.6000 -57.2833 76° East 480 552 41,000  Level Moncton Center
10:45AM 44.6333 -57.1000 76° East 480 552 41,000  Level Moncton Center
10:46AM 44.6667 -56.9167 76° East 480 552 41,000  Level Moncton Center
10:47AM 44.7000 -56.7500 74° East 480 552 41,000  Level Moncton Center
10:48AM 44.7333 -56.5500 77° East 480 552 41,000  Level Moncton Center
10:49AM 44.7667 -56.3833 74° East 480 552 41,000  Level Moncton Center
10:50AM 44.8000 -56.1833 77° East 490 564 41,000  Level Moncton Center
10:51AM 44.8333 -56.0167 74° East 490 564 41,000  Level Moncton Center
10:52AM 44.8667 -55.8167 77° East 490 564 41,000  Level Moncton Center
10:53AM 44.9000 -55.6333 76° East 480 552 41,000  Level Moncton Center
10:54AM 44.9333 -55.4500 76° East 490 564 41,000  Level Moncton Center
10:55AM 44.9667 -55.2667 76° East 480 552 41,000  Level Moncton Center
10:56AM 45.0000 -55.0833 76° East 480 552 41,000  Level Moncton Center
10:57AM 45.0167 -54.9167 82° East 470 541 41,000  Level Moncton Center
10:58AM 45.0500 -54.7167 77° East 470 541 41,000  Level Moncton Center
10:59AM 45.0833 -54.5500 74° East 470 541 41,000  Level Moncton Center
11:00AM 45.1167 -54.3500 77° East 460 529 41,000  Level Moncton Center
11:01AM 45.1333 -54.2833 70° East 470 541 41,000  Level Gander Center
11:01AM 45.1333 -54.1833 90° East 460 529 41,000  Level Moncton Center
11:02AM 45.1500 -54.0833 77° East 470 541 41,000  Level Gander Center
11:03AM 45.2000 -53.9167 67° East 460 529 41,000  Level Gander Center
11:03AM 45.2000 -53.8167 90° East 470 541 41,000  Level Moncton Center
11:04AM 45.2167 -53.6500 82° East 470 541 41,000  Level Moncton Center
11:05AM 45.2500 -53.4667 75° East 480 552 41,000  Level Moncton Center
11:06AM 45.2667 -53.3667 77° East 470 541 41,000  Level Gander Center
11:07AM 45.3167 -53.1833 69° East 470 541 41,000  Level Gander Center
11:08AM 45.3333 -53.0000 83° East 480 552 41,000  Level Gander Center
11:09AM 45.3667 -52.8167 75° East 470 541 41,000  Level Gander Center
11:10AM 45.3833 -52.6333 83° East 470 541 41,000  Level Gander Center
11:11AM 45.4167 -52.4333 77° East 460 529 41,000  Level Gander Center
11:11AM 45.4333 -52.3500 74° East 470 541 41,000  Level Moncton Center
11:12AM 45.4333 -52.1833 90° East 470 541 41,000  Level Moncton Center
11:13AM 45.4667 -52.0167 74° East 460 529 41,000  Level Moncton Center
11:14AM 45.5000 -51.8333 75° East 460 529 41,000  Level Moncton Center
11:15AM 45.5333 -51.7500 60° Northeast 450 518 41,000  Level Gander Center
11:16AM 45.5833 -51.5667 69° East 460 529 41,000  Level Gander Center
11:17AM 45.6167 -51.4333 70° East 460 529 41,000  Level Gander Center
11:17AM 45.6500 -51.3167 68° East 460 529 41,000  Level Moncton Center
11:18AM 45.6833 -51.1333 75° East 460 529 41,000  Level Moncton Center
11:19AM 45.7000 -51.0667 70° East 460 529 41,000  Level Gander Center
11:20AM 45.7500 -50.8833 69° East 470 541 41,000  Level Gander Center
11:21AM 45.8000 -50.7167 67° East 470 541 41,000  Level Gander Center
11:22AM 45.8333 -50.5333 75° East 480 552 41,000  Level Gander Center
11:23AM 45.8833 -50.3500 69° East 480 552 41,000  Level Gander Center
11:24AM 45.5000 -52.0000 70° East 444 511 41,000  Level ETMS Enhanced Traffic Management System
11:25AM 45.9500 -50.0500 70° East 470 541 41,000  Level Gander Center
11:26AM 46.0000 -50.0000 86° East 471 542 41,000  Level ETMS Enhanced Traffic Management System
11:27AM 45.9833 -49.6333 86° East 480 552 41,000  Level Gander Center
11:28AM 46.0000 -49.4667 82° East 480 552 41,000  Level Gander Center
11:29AM 46.0000 -49.2833 90° East 470 541 41,000  Level Gander Center
11:30AM 46.0167 -49.0500 84° East 490 564 41,000  Level Gander Center
11:31AM 46.0333 -48.9000 81° East 480 552 41,000  Level Gander Center
11:32AM 46.0333 -48.7333 90° East 490 564 41,000  Level Gander Center
11:33AM 46.0333 -48.5000 90° East 480 552 41,000  Level Gander Center
11:34AM 46.0500 -48.3333 82° East 480 552 41,000  Level Gander Center
11:35AM 46.0333 -48.1500 97° East 480 552 41,000  Level Gander Center
11:36AM 46.0500 -47.9500 83° East 480 552 41,000  Level Gander Center
11:37AM 46.0667 -47.7500 83° East 480 552 41,000  Level Gander Center
11:38AM 46.0500 -47.5500 97° East 480 552 41,000  Level Gander Center
11:39AM 46.0667 -47.3833 82° East 470 541 41,000  Level Gander Center
11:40AM 46.0667 -47.1833 90° East 480 552 41,000  Level Gander Center
11:41AM 46.0667 -47.0167 90° East 470 541 41,000  Level Gander Center
12:23PM 46.0000 -40.0000 86° East 454 522 41,000  Level ETMS Enhanced Traffic Management System
01:19PM 46.0000 -30.0000 86° East 462 532 41,000  Level ETMS Enhanced Traffic Management System
01:20PM 46.0433 -28.8841 87° East  Level FlightAware Approximate
01:21PM 46.0494 -28.6991 87° East  Level FlightAware Approximate
01:22PM 46.0553 -28.5140 87° East  Level FlightAware Approximate
01:23PM 46.0608 -28.3289 87° East  Level FlightAware Approximate
01:24PM 46.0660 -28.1438 88° East  Level FlightAware Approximate
01:25PM 46.0798 -27.5951 88° East 462 532 41,000  Level FlightAware Transoceanic
01:26PM 46.0838 -27.4098 88° East 462 532 41,000  Level FlightAware Transoceanic
01:27PM 46.0876 -27.2246 88° East 462 532 41,000  Level FlightAware Transoceanic
01:28PM 46.0910 -27.0393 89° East 462 532 41,000  Level FlightAware Transoceanic
01:29PM 46.0942 -26.8540 89° East 462 532 41,000  Level FlightAware Transoceanic
01:30PM 46.0970 -26.6686 89° East 462 532 41,000  Level FlightAware Transoceanic
01:31PM 46.0995 -26.4833 89° East 462 532 41,000  Level FlightAware Transoceanic
01:32PM 46.1018 -26.2979 89° East 462 532 41,000  Level FlightAware Transoceanic
01:33PM 46.1037 -26.1125 89° East 462 532 41,000  Level FlightAware Transoceanic
01:34PM 46.1054 -25.9271 89° East 462 532 41,000  Level FlightAware Transoceanic
01:35PM 46.1068 -25.7417 89° East 462 532 41,000  Level FlightAware Transoceanic
01:36PM 46.1078 -25.5563 90° East 462 532 41,000  Level FlightAware Transoceanic
01:37PM 46.1086 -25.3709 90° East 462 532 41,000  Level FlightAware Transoceanic
01:38PM 46.1090 -25.1854 90° East 462 532 41,000  Level FlightAware Transoceanic
01:39PM 46.1091 -25.0000 90° East 462 532 41,000  Level FlightAware Transoceanic
01:40PM 46.1090 -24.8146 90° East 462 532 41,000  Level FlightAware Transoceanic
01:41PM 46.1086 -24.6291 90° East 462 532 41,000  Level FlightAware Transoceanic
01:42PM 46.1078 -24.4437 90° East 462 532 41,000  Level FlightAware Transoceanic
01:43PM 46.1068 -24.2583 91° East 462 532 41,000  Level FlightAware Transoceanic
01:44PM 46.1054 -24.0729 91° East 462 532 41,000  Level FlightAware Transoceanic
01:45PM 46.1037 -23.8875 91° East 462 532 41,000  Level FlightAware Transoceanic
01:46PM 46.1018 -23.7021 91° East 462 532 41,000  Level FlightAware Transoceanic
01:47PM 46.0995 -23.5167 91° East 462 532 41,000  Level FlightAware Transoceanic
01:48PM 46.0970 -23.3314 91° East 462 532 41,000  Level FlightAware Transoceanic
01:49PM 46.0942 -23.1460 91° East 462 532 41,000  Level FlightAware Transoceanic
01:50PM 46.0910 -22.9607 91° East 462 532 41,000  Level FlightAware Transoceanic
01:51PM 46.0876 -22.7754 92° East 462 532 41,000  Level FlightAware Transoceanic
01:52PM 46.0838 -22.5902 92° East 462 532 41,000  Level FlightAware Transoceanic
01:53PM 46.0798 -22.4049 92° East 462 532 41,000  Level FlightAware Transoceanic
01:54PM 46.0754 -22.2197 92° East 462 532 41,000  Level FlightAware Transoceanic
01:55PM 46.0708 -22.0345 92° East 462 532 41,000  Level FlightAware Transoceanic
01:56PM 46.0658 -21.8493 92° East 462 532 41,000  Level FlightAware Transoceanic
01:57PM 46.0606 -21.6642 92° East 462 532 41,000  Level FlightAware Transoceanic
01:58PM 46.0551 -21.4791 93° East 462 532 41,000  Level FlightAware Transoceanic
01:59PM 46.0492 -21.2941 93° East 462 532 41,000  Level FlightAware Transoceanic
02:00PM 46.0431 -21.1091 93° East 462 532 41,000  Level FlightAware Transoceanic
02:01PM 46.0367 -20.9241 93° East 462 532 41,000  Level FlightAware Transoceanic
02:02PM 46.0299 -20.7392 93° East 462 532 41,000  Level FlightAware Transoceanic
02:03PM 46.0229 -20.5543 93° East 462 532 41,000  Level FlightAware Transoceanic
02:04PM 46.0155 -20.3695 93° East 462 532 41,000  Level FlightAware Transoceanic
02:05PM 46.0079 -20.1847 93° East 462 532 41,000  Level FlightAware Transoceanic
02:06PM 46.0000 -20.0000 93° East  Level FlightAware Approximate
02:07PM 46.0233 -19.8179 87° East  Level Estimated
02:08PM 46.0285 -19.6329 88° East  Level FlightAware Approximate
02:09PM 46.0334 -19.4479 88° East  Level FlightAware Approximate
02:10PM 46.0380 -19.2628 88° East  Level FlightAware Approximate
02:11PM 46.0423 -19.0777 88° East  Level FlightAware Approximate
02:12PM 46.0462 -18.8926 88° East  Level FlightAware Approximate
02:13PM 46.0499 -18.7074 88° East  Level FlightAware Approximate
02:14PM 46.0533 -18.5222 88° East  Level FlightAware Approximate
02:15PM 46.0564 -18.3370 89° East  Level FlightAware Approximate
02:16PM 46.0592 -18.1518 89° East  Level FlightAware Approximate
02:17PM 46.0617 -17.9665 89° East  Level FlightAware Approximate
02:18PM 46.0639 -17.7813 89° East  Level FlightAware Approximate
02:19PM 46.0658 -17.5960 89° East  Level FlightAware Approximate
02:20PM 46.0674 -17.4107 89° East  Level FlightAware Approximate
02:21PM 46.0688 -17.4091 88° East  Level FlightAware Approximate
02:22PM 46.0729 -17.2239 88° East  Level FlightAware Approximate
02:23PM 46.0767 -17.0386 88° East  Level FlightAware Approximate
02:24PM 46.0803 -16.8533 88° East  Level FlightAware Approximate
02:25PM 46.0835 -16.6680 88° East  Level FlightAware Approximate
02:26PM 46.0864 -16.4827 89° East  Level FlightAware Approximate
02:27PM 46.0890 -16.2974 89° East  Level FlightAware Approximate
02:28PM 46.0914 -16.1120 89° East  Level FlightAware Approximate
02:29PM 46.0934 -15.9267 89° East  Level FlightAware Approximate
02:30PM 46.0951 -15.7413 89° East  Level FlightAware Approximate
02:31PM 46.0965 -15.5559 89° East  Level FlightAware Approximate
02:32PM 46.0976 -15.3705 89° East  Level FlightAware Approximate
02:33PM 46.0985 -15.1851 90° East  Level FlightAware Approximate
02:34PM 46.0990 -14.9997 90° East  Level FlightAware Approximate
02:35PM 46.0992 -14.8143 90° East  Level FlightAware Approximate
02:36PM 46.0992 -14.6289 90° East  Level FlightAware Approximate
02:37PM 46.0988 -14.4435 90° East  Level FlightAware Approximate
02:38PM 46.0981 -14.2581 90° East  Level FlightAware Approximate
02:39PM 46.0971 -14.0727 90° East  Level FlightAware Approximate
02:40PM 46.0959 -13.8873 91° East  Level FlightAware Approximate
02:41PM 46.0943 -13.7019 91° East  Level FlightAware Approximate
02:42PM 46.0924 -13.5165 91° East  Level FlightAware Approximate
02:43PM 46.0902 -13.3312 91° East  Level FlightAware Approximate
02:44PM 46.0878 -13.1458 91° East  Level FlightAware Approximate
02:45PM 46.0850 -12.9605 91° East  Level FlightAware Approximate
02:46PM 46.0819 -12.7752 91° East  Level FlightAware Approximate
02:47PM 46.0785 -12.5899 91° East  Level FlightAware Approximate
02:48PM 46.0749 -12.4047 92° East  Level FlightAware Approximate
02:49PM 46.0709 -12.2194 92° East  Level FlightAware Approximate
02:50PM 46.0666 -12.0342 92° East  Level FlightAware Approximate
02:51PM 46.0621 -11.8491 92° East  Level FlightAware Approximate
02:52PM 46.0572 -11.6639 92° East  Level FlightAware Approximate
02:53PM 46.0520 -11.4788 92° East  Level FlightAware Approximate
02:54PM 46.0466 -11.2937 92° East  Level FlightAware Approximate
02:55PM 46.0408 -11.1087 93° East  Level FlightAware Approximate
02:56PM 46.0348 -10.9237 93° East  Level FlightAware Approximate
02:57PM 46.0284 -10.7387 93° East  Level FlightAware Approximate
02:58PM 46.0217 -10.5538 93° East  Level FlightAware Approximate
02:59PM 46.0148 -10.3690 93° East  Level FlightAware Approximate
03:00PM 46.0075 -10.1841 93° East  Level FlightAware Approximate
03:01PM 46.0000 -9.9994 90° East  Level FlightAware Approximate
03:02PM 46.0009 -9.8143 90° East  Level FlightAware Approximate
03:03PM 46.0014 -9.6292 90° East  Level FlightAware Approximate
03:04PM 46.0017 -9.4441 90° East  Level FlightAware Approximate
03:05PM 46.0016 -9.2591 90° East  Level FlightAware Approximate
03:06PM 46.0013 -9.0740 90° East  Level FlightAware Approximate
03:07PM 46.0007 -8.8889 90° East  Level FlightAware Approximate
03:08PM 46.0001 -8.7038 90° East  Level FlightAware Approximate
03:09PM 46.0005 -8.5187 90° East  Level FlightAware Approximate
03:10PM 46.0006 -8.3337 90° East  Level FlightAware Approximate
03:11PM 46.0004 -8.1486 90° East  Level FlightAware Approximate
03:12PM 46.0023 -7.9637 85° East  Level FlightAware Approximate
03:13PM 46.0140 -7.7793 85° East  Level FlightAware Approximate
03:14PM 46.0253 -7.5949 85° East  Level FlightAware Approximate
03:15PM 46.0364 -7.4104 85° East  Level FlightAware Approximate
03:16PM 46.0471 -7.2258 85° East  Level FlightAware Approximate
03:17PM 46.0576 -7.0412 85° East  Level FlightAware Approximate
03:18PM 46.0678 -6.8565 85° East  Level FlightAware Approximate
03:19PM 46.0776 -6.6717 86° East  Level FlightAware Approximate
03:20PM 46.0872 -6.4869 86° East  Level FlightAware Approximate
03:21PM 46.0965 -6.3020 86° East  Level FlightAware Approximate
03:22PM 46.1055 -6.1170 86° East  Level FlightAware Approximate
03:23PM 46.1141 -5.9320 86° East  Level FlightAware Approximate
03:24PM 46.1225 -5.7469 86° East  Level FlightAware Approximate
03:25PM 46.1306 -5.5618 86° East  Level FlightAware Approximate
03:26PM 46.1384 -5.3766 86° East  Level FlightAware Approximate
03:27PM 46.1459 -5.1913 87° East  Level FlightAware Approximate
03:28PM 46.1530 -5.0061 87° East  Level FlightAware Approximate
03:29PM 46.1599 -4.8207 87° East  Level FlightAware Approximate
03:30PM 46.1665 -4.6353 87° East  Level FlightAware Approximate
03:31PM 46.1728 -4.4499 87° East  Level FlightAware Approximate
03:32PM 46.1788 -4.2645 87° East  Level FlightAware Approximate
03:33PM 46.1844 -4.0789 87° East  Level FlightAware Approximate
03:34PM 46.1898 -3.8934 88° East  Level FlightAware Approximate
03:35PM 46.1949 -3.7078 88° East  Level FlightAware Approximate
03:36PM 46.1997 -3.5222 88° East  Level FlightAware Approximate
03:37PM 46.2042 -3.3366 88° East  Level FlightAware Approximate
03:38PM 46.2084 -3.1509 88° East  Level FlightAware Approximate
03:39PM 46.2122 -2.9652 88° East  Level FlightAware Approximate
03:40PM 46.2158 -2.7795 88° East  Level FlightAware Approximate
03:41PM 46.2191 -2.5937 88° East  Level FlightAware Approximate
03:42PM 46.2221 -2.4080 89° East  Level FlightAware Approximate
03:43PM 46.2247 -2.2222 89° East  Level FlightAware Approximate
03:44PM 46.2271 -2.0364 89° East  Level FlightAware Approximate
03:45PM 46.2292 -1.8505 89° East  Level FlightAware Approximate
03:46PM 46.2310 -1.6647 89° East  Level FlightAware Approximate
03:47PM 46.2324 -1.4789 89° East  Level FlightAware Approximate
03:48PM 46.2336 -1.2930 89° East  Level FlightAware Approximate
03:49PM 46.2345 -1.1071 90° East  Level FlightAware Approximate
03:50PM 46.2351 -0.9213 90° East  Level FlightAware Approximate
03:51PM 46.2353 -0.7354 90° East  Level FlightAware Approximate
03:52PM 46.2353 -0.5495 90° East  Level FlightAware Approximate
03:53PM 46.2350 -0.3637 90° East  Level FlightAware Approximate
03:54PM 46.2343 -0.1778 90° East  Level FlightAware Approximate
03:55PM 46.2334 0.0080 90° East  Level FlightAware Approximate
03:56PM 46.2321 0.1939 90° East  Level FlightAware Approximate
03:57PM 46.2306 0.3797 91° East  Level FlightAware Approximate
03:58PM 46.2287 0.5656 91° East  Level FlightAware Approximate
03:59PM 46.2266 0.7514 91° East  Level FlightAware Approximate
04:00PM 46.2242 0.9372 91° East  Level FlightAware Approximate
04:01PM 46.2214 1.1230 91° East  Level FlightAware Approximate
04:02PM 46.2184 1.3087 91° East  Level FlightAware Approximate
04:03PM 46.2150 1.4945 91° East  Level FlightAware Approximate
04:04PM 46.2114 1.6802 92° East  Level FlightAware Approximate
04:05PM 46.2074 1.8659 92° East  Level FlightAware Approximate
04:06PM 46.2032 2.0516 92° East  Level FlightAware Approximate
04:07PM 46.1987 2.2372 92° East  Level FlightAware Approximate
04:08PM 46.1939 2.4228 92° East  Level FlightAware Approximate
04:09PM 46.1887 2.6084 92° East  Level FlightAware Approximate
04:10PM 46.1833 2.7939 92° East  Level FlightAware Approximate
04:11PM 46.1776 2.9794 92° East  Level FlightAware Approximate
04:12PM 46.1716 3.1649 93° East  Level FlightAware Approximate
04:13PM 46.1653 3.3503 93° East  Level FlightAware Approximate
04:14PM 46.1587 3.5357 93° East  Level FlightAware Approximate
04:15PM 46.1518 3.7210 93° East  Level FlightAware Approximate
04:16PM 46.1446 3.9063 93° East  Level FlightAware Approximate
04:17PM 46.1371 4.0915 93° East  Level FlightAware Approximate
04:18PM 46.1293 4.2767 93° East  Level FlightAware Approximate
04:19PM 46.1212 4.4618 94° East  Level FlightAware Approximate
04:20PM 46.1128 4.6469 94° East  Level FlightAware Approximate
04:21PM 46.1040 4.8319 94° East  Level FlightAware Approximate
04:22PM 46.0951 5.0169 94° East  Level FlightAware Approximate
04:23PM 46.0858 5.2018 94° East  Level FlightAware Approximate
04:24PM 46.0761 5.3866 94° East  Level FlightAware Approximate
04:25PM 46.0663 5.5714 94° East  Level FlightAware Approximate
04:26PM 46.0561 5.7561 94° East  Level FlightAware Approximate
04:27PM 46.0456 5.9407 95° East  Level FlightAware Approximate
04:28PM 46.0348 6.1252 95° East  Level FlightAware Approximate
04:29PM 46.0237 6.3097 95° East  Level FlightAware Approximate
04:30PM 46.0123 6.4941 95° East  Level FlightAware Approximate
04:31PM 46.0006 6.6785 95° East  Level FlightAware Approximate
04:32PM 45.9887 6.8627 95° East  Level FlightAware Approximate
04:33PM 45.9764 7.0469 95° East  Level FlightAware Approximate
04:34PM 45.9638 7.2310 96° East  Level FlightAware Approximate
04:35PM 45.9510 7.4150 96° East  Level FlightAware Approximate
04:36PM 45.9378 7.5989 96° East  Level FlightAware Approximate
04:37PM 45.9244 7.7828 96° East  Level FlightAware Approximate
04:38PM 45.9106 7.9665 96° East  Level FlightAware Approximate
04:39PM 45.8966 8.1502 96° East  Level FlightAware Approximate
04:40PM 45.8823 8.3337 96° East  Level FlightAware Approximate
04:41PM 45.8676 8.5172 96° East  Level FlightAware Approximate
04:42PM 45.8527 8.7005 97° East  Level FlightAware Approximate
04:43PM 45.8406 8.8843 95° East  Level FlightAware Approximate
04:44PM 45.8255 9.0674 99° East  Level FlightAware Approximate
04:45PM 45.8041 9.2493 100° East  Level FlightAware Approximate
04:46PM 45.7923 9.4328 94° East  Level FlightAware Approximate
04:47PM 45.7813 9.6164 100° East  Level FlightAware Approximate
04:48PM 45.7541 9.7963 106° East  Level FlightAware Approximate
04:49PM 45.7424 9.9793 94° East  Level FlightAware Approximate
04:50PM 45.7335 10.1631 94° East  Level FlightAware Approximate
04:51PM 45.7103 10.3442 100° East  Level FlightAware Approximate
04:52PM 45.6866 10.5251 101° East  Level FlightAware Approximate
04:53PM 45.6680 10.7072 98° East  Level FlightAware Approximate
04:54PM 45.6499 10.8893 98° East  Level FlightAware Approximate
04:55PM 45.6315 11.0713 98° East  Level FlightAware Approximate
04:56PM 45.6141 11.2534 96° East  Level FlightAware Approximate
04:57PM 45.6010 11.4362 96° East  Level FlightAware Approximate
04:58PM 45.5815 11.6178 99° East  Level FlightAware Approximate
04:59PM 45.5597 11.7988 101° East  Level FlightAware Approximate
05:00PM 45.5340 11.9786 101° East  Level FlightAware Approximate
05:01PM 45.5167 12.1544 90° East  Level FlightAware Approximate
05:02PM 45.5073 12.2988 101° East  Level FlightAware Approximate
05:03PM 45.5000 12.3500 101° East  Level FlightAware Approximate
05:04PM 45.5051 12.3519 101° East  Level Estimated
05:05PM 45.5000 12.3500 101° East  Level FlightAware Approximate
05:06PM 45.5051 12.3519 101° East  Level Estimated
05:07PM 45.5000 12.3500 101° East  Level FlightAware Approximate
05:08PM 45.5051 12.3519 101° East  Level Estimated
05:09PM 45.5000 12.3500 101° East  Level FlightAware Approximate
05:10PM 45.5051 12.3519 101° East  Level Estimated
05:11PM 45.5000 12.3500 101° East  Level FlightAware Approximate
05:12PM 45.5051 12.3519 101° East  Level Estimated
05:13PM 45.5000 12.3500 101° East  Level FlightAware Approximate
05:14PM 45.5051 12.3519 101° East  Level Estimated
05:15PM 45.5000 12.3500 101° East  Level FlightAware Approximate
05:16PM 45.5051 12.3519 101° East  Level Estimated
05:17PM 45.5000 12.3500 101° East  Level FlightAware Approximate
05:18PM 45.5051 12.3519 101° East  Level Estimated
05:19PM 45.5000 12.3500 101° East  Level FlightAware Approximate
05:20PM 45.5051 12.3519 101° East  Level Estimated
05:21PM 45.5000 12.3500 101° East  Level FlightAware Approximate
05:22PM 45.5051 12.3519 101° East  Level Estimated

Login

Don't have an account? Register now (free) for customized features, flight alerts, and more!